sensor_id;sensor_type;location;lat;lon;timestamp;P1;durP1;ratioP1;P2;durP2;ratioP2
9142;SDS011;54072;47.410;8.446;2023-06-22T00:00:18;11.07;;;6.00;;
9142;SDS011;54072;47.410;8.446;2023-06-22T00:02:47;7.43;;;6.10;;
9142;SDS011;54072;47.410;8.446;2023-06-22T00:05:16;11.10;;;6.70;;
9142;SDS011;54072;47.410;8.446;2023-06-22T00:07:44;8.13;;;6.10;;
9142;SDS011;54072;47.410;8.446;2023-06-22T00:10:11;9.50;;;5.87;;
9142;SDS011;54072;47.410;8.446;2023-06-22T00:12:39;12.07;;;6.03;;
9142;SDS011;54072;47.410;8.446;2023-06-22T00:15:07;11.10;;;5.77;;
9142;SDS011;54072;47.410;8.446;2023-06-22T00:17:34;10.47;;;5.73;;
9142;SDS011;54072;47.410;8.446;2023-06-22T00:20:02;9.80;;;5.80;;
9142;SDS011;54072;47.410;8.446;2023-06-22T00:22:36;9.17;;;5.80;;
9142;SDS011;54072;47.410;8.446;2023-06-22T00:25:05;10.27;;;6.43;;
9142;SDS011;54072;47.410;8.446;2023-06-22T00:27:33;11.27;;;6.67;;
9142;SDS011;54072;47.410;8.446;2023-06-22T00:30:01;13.10;;;6.60;;
9142;SDS011;54072;47.410;8.446;2023-06-22T00:32:29;12.30;;;6.53;;
9142;SDS011;54072;47.410;8.446;2023-06-22T00:34:56;10.10;;;6.10;;
9142;SDS011;54072;47.410;8.446;2023-06-22T00:37:24;12.07;;;6.40;;
9142;SDS011;54072;47.410;8.446;2023-06-22T00:39:53;13.20;;;6.30;;
9142;SDS011;54072;47.410;8.446;2023-06-22T00:42:21;9.57;;;6.33;;
9142;SDS011;54072;47.410;8.446;2023-06-22T00:44:48;9.50;;;6.40;;
9142;SDS011;54072;47.410;8.446;2023-06-22T00:47:17;11.10;;;6.70;;
9142;SDS011;54072;47.410;8.446;2023-06-22T00:49:45;8.60;;;6.53;;
9142;SDS011;54072;47.410;8.446;2023-06-22T00:52:14;9.37;;;6.33;;
9142;SDS011;54072;47.410;8.446;2023-06-22T00:54:47;8.40;;;6.33;;
9142;SDS011;54072;47.410;8.446;2023-06-22T00:57:16;10.67;;;6.53;;
9142;SDS011;54072;47.410;8.446;2023-06-22T00:59:44;11.03;;;6.40;;
9142;SDS011;54072;47.410;8.446;2023-06-22T01:02:12;8.60;;;6.67;;
9142;SDS011;54072;47.410;8.446;2023-06-22T01:04:40;9.80;;;6.63;;
9142;SDS011;54072;47.410;8.446;2023-06-22T01:07:10;11.30;;;6.33;;
9142;SDS011;54072;47.410;8.446;2023-06-22T01:09:44;9.47;;;6.50;;
9142;SDS011;54072;47.410;8.446;2023-06-22T01:12:13;11.60;;;6.70;;
9142;SDS011;54072;47.410;8.446;2023-06-22T01:14:43;8.37;;;6.20;;
9142;SDS011;54072;47.410;8.446;2023-06-22T01:17:13;9.67;;;6.97;;
9142;SDS011;54072;47.410;8.446;2023-06-22T01:19:43;11.73;;;7.33;;
9142;SDS011;54072;47.410;8.446;2023-06-22T01:22:13;10.57;;;6.57;;
9142;SDS011;54072;47.410;8.446;2023-06-22T01:24:45;9.77;;;6.70;;
9142;SDS011;54072;47.410;8.446;2023-06-22T01:27:17;9.23;;;6.40;;
9142;SDS011;54072;47.410;8.446;2023-06-22T01:29:50;9.77;;;6.60;;
9142;SDS011;54072;47.410;8.446;2023-06-22T01:32:18;8.13;;;7.00;;
9142;SDS011;54072;47.410;8.446;2023-06-22T01:34:46;8.70;;;6.93;;
9142;SDS011;54072;47.410;8.446;2023-06-22T01:37:14;9.37;;;7.00;;
9142;SDS011;54072;47.410;8.446;2023-06-22T01:39:42;8.63;;;6.73;;
9142;SDS011;54072;47.410;8.446;2023-06-22T01:42:10;8.90;;;6.90;;
9142;SDS011;54072;47.410;8.446;2023-06-22T01:44:37;9.73;;;6.47;;
9142;SDS011;54072;47.410;8.446;2023-06-22T01:47:06;9.67;;;6.67;;
9142;SDS011;54072;47.410;8.446;2023-06-22T01:49:34;13.67;;;7.20;;
9142;SDS011;54072;47.410;8.446;2023-06-22T01:52:02;10.27;;;6.83;;
9142;SDS011;54072;47.410;8.446;2023-06-22T01:54:30;13.67;;;7.30;;
9142;SDS011;54072;47.410;8.446;2023-06-22T01:56:57;11.47;;;7.20;;
9142;SDS011;54072;47.410;8.446;2023-06-22T01:59:25;12.47;;;6.77;;
9142;SDS011;54072;47.410;8.446;2023-06-22T02:01:56;8.37;;;6.50;;
9142;SDS011;54072;47.410;8.446;2023-06-22T02:04:27;9.73;;;6.40;;
9142;SDS011;54072;47.410;8.446;2023-06-22T02:06:56;9.87;;;6.77;;
9142;SDS011;54072;47.410;8.446;2023-06-22T02:09:25;11.77;;;7.20;;
9142;SDS011;54072;47.410;8.446;2023-06-22T02:11:55;11.17;;;6.70;;
9142;SDS011;54072;47.410;8.446;2023-06-22T02:14:23;9.80;;;6.83;;
9142;SDS011;54072;47.410;8.446;2023-06-22T02:16:51;11.80;;;6.80;;
9142;SDS011;54072;47.410;8.446;2023-06-22T02:19:22;8.87;;;6.80;;
9142;SDS011;54072;47.410;8.446;2023-06-22T02:21:51;9.40;;;6.60;;
9142;SDS011;54072;47.410;8.446;2023-06-22T02:24:19;9.00;;;6.87;;
9142;SDS011;54072;47.410;8.446;2023-06-22T02:26:49;10.17;;;7.03;;
9142;SDS011;54072;47.410;8.446;2023-06-22T02:29:16;9.03;;;6.53;;
9142;SDS011;54072;47.410;8.446;2023-06-22T02:31:44;8.63;;;6.20;;
9142;SDS011;54072;47.410;8.446;2023-06-22T02:34:12;9.17;;;6.83;;
9142;SDS011;54072;47.410;8.446;2023-06-22T02:36:45;14.87;;;7.27;;
9142;SDS011;54072;47.410;8.446;2023-06-22T02:39:19;15.77;;;7.47;;
9142;SDS011;54072;47.410;8.446;2023-06-22T02:41:48;14.63;;;7.30;;
9142;SDS011;54072;47.410;8.446;2023-06-22T02:44:16;11.50;;;7.73;;
9142;SDS011;54072;47.410;8.446;2023-06-22T02:46:44;12.03;;;7.87;;
9142;SDS011;54072;47.410;8.446;2023-06-22T02:49:11;11.20;;;6.97;;
9142;SDS011;54072;47.410;8.446;2023-06-22T02:51:39;10.10;;;7.00;;
9142;SDS011;54072;47.410;8.446;2023-06-22T02:54:06;10.17;;;7.23;;
9142;SDS011;54072;47.410;8.446;2023-06-22T02:56:35;11.00;;;7.13;;
9142;SDS011;54072;47.410;8.446;2023-06-22T02:59:03;8.97;;;7.00;;
9142;SDS011;54072;47.410;8.446;2023-06-22T03:01:31;9.00;;;6.67;;
9142;SDS011;54072;47.410;8.446;2023-06-22T03:04:06;9.63;;;7.07;;
9142;SDS011;54072;47.410;8.446;2023-06-22T03:06:34;9.63;;;7.00;;
9142;SDS011;54072;47.410;8.446;2023-06-22T03:09:02;15.30;;;7.53;;
9142;SDS011;54072;47.410;8.446;2023-06-22T03:11:30;10.77;;;7.57;;
9142;SDS011;54072;47.410;8.446;2023-06-22T03:13:59;10.37;;;7.17;;
9142;SDS011;54072;47.410;8.446;2023-06-22T03:16:27;12.10;;;7.60;;
9142;SDS011;54072;47.410;8.446;2023-06-22T03:18:55;11.33;;;7.00;;
9142;SDS011;54072;47.410;8.446;2023-06-22T03:21:23;12.13;;;7.67;;
9142;SDS011;54072;47.410;8.446;2023-06-22T03:23:50;12.63;;;8.07;;
9142;SDS011;54072;47.410;8.446;2023-06-22T03:26:18;11.10;;;7.60;;
9142;SDS011;54072;47.410;8.446;2023-06-22T03:28:46;10.27;;;8.90;;
9142;SDS011;54072;47.410;8.446;2023-06-22T03:31:15;9.77;;;7.57;;
9142;SDS011;54072;47.410;8.446;2023-06-22T03:33:42;10.27;;;7.50;;
9142;SDS011;54072;47.410;8.446;2023-06-22T03:36:10;14.30;;;7.63;;
9142;SDS011;54072;47.410;8.446;2023-06-22T03:38:38;9.87;;;7.50;;
9142;SDS011;54072;47.410;8.446;2023-06-22T03:41:06;11.33;;;7.87;;
9142;SDS011;54072;47.410;8.446;2023-06-22T03:43:34;13.63;;;7.33;;
9142;SDS011;54072;47.410;8.446;2023-06-22T03:46:01;13.07;;;7.50;;
9142;SDS011;54072;47.410;8.446;2023-06-22T03:48:30;10.67;;;7.63;;
9142;SDS011;54072;47.410;8.446;2023-06-22T03:50:58;11.60;;;7.53;;
9142;SDS011;54072;47.410;8.446;2023-06-22T03:53:26;9.83;;;7.77;;
9142;SDS011;54072;47.410;8.446;2023-06-22T03:55:53;11.40;;;7.70;;
9142;SDS011;54072;47.410;8.446;2023-06-22T03:58:21;12.10;;;7.87;;
9142;SDS011;54072;47.410;8.446;2023-06-22T04:00:49;13.47;;;8.00;;
9142;SDS011;54072;47.410;8.446;2023-06-22T04:03:17;14.60;;;8.90;;
9142;SDS011;54072;47.410;8.446;2023-06-22T04:05:47;9.67;;;7.67;;
9142;SDS011;54072;47.410;8.446;2023-06-22T04:08:14;14.30;;;7.67;;
9142;SDS011;54072;47.410;8.446;2023-06-22T04:10:42;13.43;;;8.50;;
9142;SDS011;54072;47.410;8.446;2023-06-22T04:13:10;11.63;;;8.63;;
9142;SDS011;54072;47.410;8.446;2023-06-22T04:15:37;11.37;;;8.10;;
9142;SDS011;54072;47.410;8.446;2023-06-22T04:18:05;13.87;;;8.40;;
9142;SDS011;54072;47.410;8.446;2023-06-22T04:20:32;10.77;;;7.87;;
9142;SDS011;54072;47.410;8.446;2023-06-22T04:23:01;11.87;;;8.67;;
9142;SDS011;54072;47.410;8.446;2023-06-22T04:25:29;12.13;;;8.60;;
9142;SDS011;54072;47.410;8.446;2023-06-22T04:27:56;14.37;;;8.63;;
9142;SDS011;54072;47.410;8.446;2023-06-22T04:30:24;9.63;;;8.17;;
9142;SDS011;54072;47.410;8.446;2023-06-22T04:32:52;11.60;;;7.20;;
9142;SDS011;54072;47.410;8.446;2023-06-22T04:35:24;14.60;;;8.40;;
9142;SDS011;54072;47.410;8.446;2023-06-22T04:37:52;11.97;;;8.17;;
9142;SDS011;54072;47.410;8.446;2023-06-22T04:40:23;13.67;;;8.27;;
9142;SDS011;54072;47.410;8.446;2023-06-22T04:42:50;12.90;;;7.60;;
9142;SDS011;54072;47.410;8.446;2023-06-22T04:45:19;11.53;;;7.80;;
9142;SDS011;54072;47.410;8.446;2023-06-22T04:47:47;12.27;;;7.53;;
9142;SDS011;54072;47.410;8.446;2023-06-22T04:50:15;10.80;;;7.63;;
9142;SDS011;54072;47.410;8.446;2023-06-22T04:52:43;9.87;;;7.57;;
9142;SDS011;54072;47.410;8.446;2023-06-22T04:55:11;10.50;;;7.70;;
9142;SDS011;54072;47.410;8.446;2023-06-22T04:57:42;8.90;;;7.13;;
9142;SDS011;54072;47.410;8.446;2023-06-22T05:00:15;12.90;;;7.27;;
9142;SDS011;54072;47.410;8.446;2023-06-22T05:02:45;11.03;;;6.80;;
9142;SDS011;54072;47.410;8.446;2023-06-22T05:05:13;9.83;;;7.27;;
9142;SDS011;54072;47.410;8.446;2023-06-22T05:07:41;11.47;;;7.50;;
9142;SDS011;54072;47.410;8.446;2023-06-22T05:10:10;12.20;;;7.23;;
9142;SDS011;54072;47.410;8.446;2023-06-22T05:12:38;10.30;;;7.23;;
9142;SDS011;54072;47.410;8.446;2023-06-22T05:15:08;14.70;;;7.90;;
9142;SDS011;54072;47.410;8.446;2023-06-22T05:17:36;11.47;;;7.93;;
9142;SDS011;54072;47.410;8.446;2023-06-22T05:20:07;10.87;;;7.33;;
9142;SDS011;54072;47.410;8.446;2023-06-22T05:22:36;9.33;;;6.57;;
9142;SDS011;54072;47.410;8.446;2023-06-22T05:25:04;9.50;;;6.90;;
9142;SDS011;54072;47.410;8.446;2023-06-22T05:27:32;16.63;;;7.20;;
9142;SDS011;54072;47.410;8.446;2023-06-22T05:30:00;10.03;;;6.60;;
9142;SDS011;54072;47.410;8.446;2023-06-22T05:32:29;14.47;;;7.07;;
9142;SDS011;54072;47.410;8.446;2023-06-22T05:34:56;10.67;;;6.57;;
9142;SDS011;54072;47.410;8.446;2023-06-22T05:37:24;11.07;;;7.00;;
9142;SDS011;54072;47.410;8.446;2023-06-22T05:39:51;10.27;;;6.63;;
9142;SDS011;54072;47.410;8.446;2023-06-22T05:42:20;8.73;;;6.43;;
9142;SDS011;54072;47.410;8.446;2023-06-22T05:44:47;8.37;;;6.60;;
9142;SDS011;54072;47.410;8.446;2023-06-22T05:47:15;10.90;;;7.13;;
9142;SDS011;54072;47.410;8.446;2023-06-22T05:49:44;10.13;;;6.80;;
9142;SDS011;54072;47.410;8.446;2023-06-22T05:52:11;10.63;;;6.83;;
9142;SDS011;54072;47.410;8.446;2023-06-22T05:54:39;11.43;;;7.03;;
9142;SDS011;54072;47.410;8.446;2023-06-22T05:57:08;9.27;;;6.90;;
9142;SDS011;54072;47.410;8.446;2023-06-22T05:59:35;10.57;;;6.50;;
9142;SDS011;54072;47.410;8.446;2023-06-22T06:02:03;10.15;;;6.68;;
9142;SDS011;54072;47.410;8.446;2023-06-22T06:04:31;10.95;;;6.70;;
9142;SDS011;54072;47.410;8.446;2023-06-22T06:07:00;11.45;;;6.95;;
9142;SDS011;54072;47.410;8.446;2023-06-22T06:09:27;9.80;;;6.60;;
9142;SDS011;54072;47.410;8.446;2023-06-22T06:11:55;12.90;;;7.57;;
9142;SDS011;54072;47.410;8.446;2023-06-22T06:14:22;11.90;;;7.05;;
9142;SDS011;54072;47.410;8.446;2023-06-22T06:16:50;11.77;;;7.65;;
9142;SDS011;54072;47.410;8.446;2023-06-22T06:19:17;10.80;;;7.20;;
9142;SDS011;54072;47.410;8.446;2023-06-22T06:21:45;11.90;;;7.40;;
9142;SDS011;54072;47.410;8.446;2023-06-22T06:24:14;15.75;;;7.75;;
9142;SDS011;54072;47.410;8.446;2023-06-22T06:26:42;12.00;;;6.95;;
9142;SDS011;54072;47.410;8.446;2023-06-22T06:29:09;9.80;;;6.85;;
9142;SDS011;54072;47.410;8.446;2023-06-22T06:31:37;9.80;;;7.05;;
9142;SDS011;54072;47.410;8.446;2023-06-22T06:34:04;12.52;;;7.43;;
9142;SDS011;54072;47.410;8.446;2023-06-22T06:36:32;10.07;;;7.18;;
9142;SDS011;54072;47.410;8.446;2023-06-22T06:38:59;9.82;;;7.05;;
9142;SDS011;54072;47.410;8.446;2023-06-22T06:41:28;13.52;;;7.32;;
9142;SDS011;54072;47.410;8.446;2023-06-22T06:43:56;12.75;;;7.13;;
9142;SDS011;54072;47.410;8.446;2023-06-22T06:46:23;9.95;;;7.43;;
9142;SDS011;54072;47.410;8.446;2023-06-22T06:48:51;12.82;;;7.07;;
9142;SDS011;54072;47.410;8.446;2023-06-22T06:51:18;12.85;;;7.68;;
9142;SDS011;54072;47.410;8.446;2023-06-22T06:53:46;11.68;;;7.18;;
9142;SDS011;54072;47.410;8.446;2023-06-22T06:56:13;10.88;;;7.28;;
9142;SDS011;54072;47.410;8.446;2023-06-22T06:58:42;17.45;;;6.97;;
9142;SDS011;54072;47.410;8.446;2023-06-22T07:01:11;9.57;;;6.57;;
9142;SDS011;54072;47.410;8.446;2023-06-22T07:03:39;9.10;;;6.47;;
9142;SDS011;54072;47.410;8.446;2023-06-22T07:06:06;22.15;;;8.35;;
9142;SDS011;54072;47.410;8.446;2023-06-22T07:08:34;11.70;;;6.95;;
9142;SDS011;54072;47.410;8.446;2023-06-22T07:11:03;12.43;;;7.90;;
9142;SDS011;54072;47.410;8.446;2023-06-22T07:13:30;12.75;;;8.05;;
9142;SDS011;54072;47.410;8.446;2023-06-22T07:15:59;9.43;;;7.78;;
9142;SDS011;54072;47.410;8.446;2023-06-22T07:18:27;12.43;;;7.55;;
9142;SDS011;54072;47.410;8.446;2023-06-22T07:20:54;9.60;;;7.60;;
9142;SDS011;54072;47.410;8.446;2023-06-22T07:23:22;15.32;;;7.65;;
9142;SDS011;54072;47.410;8.446;2023-06-22T07:25:50;8.98;;;7.20;;
9142;SDS011;54072;47.410;8.446;2023-06-22T07:28:17;11.07;;;6.95;;
9142;SDS011;54072;47.410;8.446;2023-06-22T07:30:45;13.43;;;7.63;;
9142;SDS011;54072;47.410;8.446;2023-06-22T07:33:14;14.20;;;7.55;;
9142;SDS011;54072;47.410;8.446;2023-06-22T07:35:43;16.10;;;9.07;;
9142;SDS011;54072;47.410;8.446;2023-06-22T07:38:11;13.30;;;8.13;;
9142;SDS011;54072;47.410;8.446;2023-06-22T07:40:39;13.98;;;7.15;;
9142;SDS011;54072;47.410;8.446;2023-06-22T07:43:07;17.40;;;8.35;;
9142;SDS011;54072;47.410;8.446;2023-06-22T07:45:35;12.60;;;7.75;;
9142;SDS011;54072;47.410;8.446;2023-06-22T07:48:03;10.00;;;7.72;;
9142;SDS011;54072;47.410;8.446;2023-06-22T07:50:31;16.63;;;8.00;;
9142;SDS011;54072;47.410;8.446;2023-06-22T07:52:59;12.10;;;7.80;;
9142;SDS011;54072;47.410;8.446;2023-06-22T07:55:27;11.63;;;7.93;;
9142;SDS011;54072;47.410;8.446;2023-06-22T07:57:54;12.73;;;6.82;;
9142;SDS011;54072;47.410;8.446;2023-06-22T08:00:22;11.07;;;6.93;;
9142;SDS011;54072;47.410;8.446;2023-06-22T08:02:49;11.63;;;7.25;;
9142;SDS011;54072;47.410;8.446;2023-06-22T08:05:17;12.05;;;7.38;;
9142;SDS011;54072;47.410;8.446;2023-06-22T08:07:48;10.38;;;6.95;;
9142;SDS011;54072;47.410;8.446;2023-06-22T08:10:16;11.27;;;7.07;;
9142;SDS011;54072;47.410;8.446;2023-06-22T08:12:44;11.82;;;7.07;;
9142;SDS011;54072;47.410;8.446;2023-06-22T08:15:11;13.15;;;8.13;;
9142;SDS011;54072;47.410;8.446;2023-06-22T08:17:39;13.05;;;7.68;;
9142;SDS011;54072;47.410;8.446;2023-06-22T08:20:07;11.02;;;8.35;;
9142;SDS011;54072;47.410;8.446;2023-06-22T08:22:38;9.48;;;7.43;;
9142;SDS011;54072;47.410;8.446;2023-06-22T08:25:08;10.50;;;7.50;;
9142;SDS011;54072;47.410;8.446;2023-06-22T08:27:35;10.25;;;7.53;;
9142;SDS011;54072;47.410;8.446;2023-06-22T08:30:03;13.98;;;6.97;;
9142;SDS011;54072;47.410;8.446;2023-06-22T08:32:31;9.50;;;7.38;;
9142;SDS011;54072;47.410;8.446;2023-06-22T08:35:00;10.55;;;7.25;;
9142;SDS011;54072;47.410;8.446;2023-06-22T08:37:27;12.93;;;7.72;;
9142;SDS011;54072;47.410;8.446;2023-06-22T08:39:58;10.48;;;7.57;;
9142;SDS011;54072;47.410;8.446;2023-06-22T08:42:28;11.45;;;7.50;;
9142;SDS011;54072;47.410;8.446;2023-06-22T08:44:56;10.52;;;8.07;;
9142;SDS011;54072;47.410;8.446;2023-06-22T08:47:23;15.38;;;7.50;;
9142;SDS011;54072;47.410;8.446;2023-06-22T08:49:51;12.00;;;7.32;;
9142;SDS011;54072;47.410;8.446;2023-06-22T08:52:18;9.70;;;7.45;;
9142;SDS011;54072;47.410;8.446;2023-06-22T08:54:46;13.60;;;7.80;;
9142;SDS011;54072;47.410;8.446;2023-06-22T08:57:14;12.48;;;7.32;;
9142;SDS011;54072;47.410;8.446;2023-06-22T08:59:43;9.23;;;7.40;;
9142;SDS011;54072;47.410;8.446;2023-06-22T09:02:11;10.02;;;7.05;;
9142;SDS011;54072;47.410;8.446;2023-06-22T09:04:38;9.80;;;7.00;;
9142;SDS011;54072;47.410;8.446;2023-06-22T09:07:06;10.98;;;7.47;;
9142;SDS011;54072;47.410;8.446;2023-06-22T09:09:34;10.93;;;7.60;;
9142;SDS011;54072;47.410;8.446;2023-06-22T09:12:01;7.60;;;6.38;;
9142;SDS011;54072;47.410;8.446;2023-06-22T09:14:29;8.63;;;7.22;;
9142;SDS011;54072;47.410;8.446;2023-06-22T09:16:58;8.43;;;7.45;;
9142;SDS011;54072;47.410;8.446;2023-06-22T09:19:25;12.15;;;7.32;;
9142;SDS011;54072;47.410;8.446;2023-06-22T09:21:53;15.10;;;7.43;;
9142;SDS011;54072;47.410;8.446;2023-06-22T09:24:21;9.18;;;6.60;;
9142;SDS011;54072;47.410;8.446;2023-06-22T09:26:48;8.48;;;7.03;;
9142;SDS011;54072;47.410;8.446;2023-06-22T09:29:16;12.50;;;7.07;;
9142;SDS011;54072;47.410;8.446;2023-06-22T09:31:44;9.40;;;6.88;;
9142;SDS011;54072;47.410;8.446;2023-06-22T09:34:13;12.70;;;7.35;;
9142;SDS011;54072;47.410;8.446;2023-06-22T09:36:40;11.00;;;7.47;;
9142;SDS011;54072;47.410;8.446;2023-06-22T09:39:08;12.07;;;7.68;;
9142;SDS011;54072;47.410;8.446;2023-06-22T09:41:36;11.63;;;8.00;;
9142;SDS011;54072;47.410;8.446;2023-06-22T09:44:03;12.10;;;7.53;;
9142;SDS011;54072;47.410;8.446;2023-06-22T09:46:31;10.85;;;7.32;;
9142;SDS011;54072;47.410;8.446;2023-06-22T09:48:58;10.93;;;7.15;;
9142;SDS011;54072;47.410;8.446;2023-06-22T09:51:27;10.85;;;7.45;;
9142;SDS011;54072;47.410;8.446;2023-06-22T09:53:55;11.15;;;7.63;;
9142;SDS011;54072;47.410;8.446;2023-06-22T09:56:22;11.23;;;7.50;;
9142;SDS011;54072;47.410;8.446;2023-06-22T09:58:51;10.00;;;7.53;;
9142;SDS011;54072;47.410;8.446;2023-06-22T10:01:19;13.10;;;7.68;;
9142;SDS011;54072;47.410;8.446;2023-06-22T10:03:47;12.80;;;6.88;;
9142;SDS011;54072;47.410;8.446;2023-06-22T10:06:15;10.88;;;6.88;;
9142;SDS011;54072;47.410;8.446;2023-06-22T10:08:44;12.63;;;7.22;;
9142;SDS011;54072;47.410;8.446;2023-06-22T10:11:12;9.73;;;7.13;;
9142;SDS011;54072;47.410;8.446;2023-06-22T10:13:39;12.02;;;8.05;;
9142;SDS011;54072;47.410;8.446;2023-06-22T10:16:07;11.30;;;7.05;;
9142;SDS011;54072;47.410;8.446;2023-06-22T10:18:35;11.40;;;6.93;;
9142;SDS011;54072;47.410;8.446;2023-06-22T10:21:02;12.57;;;6.18;;
9142;SDS011;54072;47.410;8.446;2023-06-22T10:23:30;10.57;;;6.40;;
9142;SDS011;54072;47.410;8.446;2023-06-22T10:26:00;13.35;;;6.90;;
9142;SDS011;54072;47.410;8.446;2023-06-22T10:28:28;9.77;;;6.43;;
9142;SDS011;54072;47.410;8.446;2023-06-22T10:30:57;11.40;;;6.85;;
9142;SDS011;54072;47.410;8.446;2023-06-22T10:33:25;17.60;;;6.68;;
9142;SDS011;54072;47.410;8.446;2023-06-22T10:35:52;7.88;;;6.82;;
9142;SDS011;54072;47.410;8.446;2023-06-22T10:38:20;9.02;;;6.57;;
9142;SDS011;54072;47.410;8.446;2023-06-22T10:40:47;11.40;;;7.18;;
9142;SDS011;54072;47.410;8.446;2023-06-22T10:43:16;8.50;;;6.13;;
9142;SDS011;54072;47.410;8.446;2023-06-22T10:45:44;12.18;;;6.57;;
9142;SDS011;54072;47.410;8.446;2023-06-22T10:48:11;10.85;;;6.63;;
9142;SDS011;54072;47.410;8.446;2023-06-22T10:50:39;11.57;;;6.28;;
9142;SDS011;54072;47.410;8.446;2023-06-22T10:53:06;14.18;;;7.07;;
9142;SDS011;54072;47.410;8.446;2023-06-22T10:55:34;13.40;;;6.65;;
9142;SDS011;54072;47.410;8.446;2023-06-22T10:58:12;11.80;;;6.53;;
9142;SDS011;54072;47.410;8.446;2023-06-22T11:00:41;9.45;;;6.68;;
9142;SDS011;54072;47.410;8.446;2023-06-22T11:03:08;7.82;;;5.95;;
9142;SDS011;54072;47.410;8.446;2023-06-22T11:05:37;9.35;;;6.22;;
9142;SDS011;54072;47.410;8.446;2023-06-22T11:08:05;9.48;;;6.38;;
9142;SDS011;54072;47.410;8.446;2023-06-22T11:10:32;9.98;;;6.68;;
9142;SDS011;54072;47.410;8.446;2023-06-22T11:13:00;9.00;;;5.93;;
9142;SDS011;54072;47.410;8.446;2023-06-22T11:15:29;11.70;;;6.30;;
9142;SDS011;54072;47.410;8.446;2023-06-22T11:17:58;11.55;;;6.63;;
9142;SDS011;54072;47.410;8.446;2023-06-22T11:20:25;11.55;;;6.43;;
9142;SDS011;54072;47.410;8.446;2023-06-22T11:22:53;10.30;;;6.90;;
9142;SDS011;54072;47.410;8.446;2023-06-22T11:25:21;13.55;;;6.75;;
9142;SDS011;54072;47.410;8.446;2023-06-22T11:27:48;9.80;;;6.70;;
9142;SDS011;54072;47.410;8.446;2023-06-22T11:30:17;10.60;;;6.72;;
9142;SDS011;54072;47.410;8.446;2023-06-22T11:32:46;9.27;;;6.55;;
9142;SDS011;54072;47.410;8.446;2023-06-22T11:35:15;9.13;;;6.65;;
9142;SDS011;54072;47.410;8.446;2023-06-22T11:37:42;13.32;;;6.70;;
9142;SDS011;54072;47.410;8.446;2023-06-22T11:40:11;9.63;;;6.57;;
9142;SDS011;54072;47.410;8.446;2023-06-22T11:42:39;9.20;;;6.78;;
9142;SDS011;54072;47.410;8.446;2023-06-22T11:45:07;11.95;;;7.00;;
9142;SDS011;54072;47.410;8.446;2023-06-22T11:47:34;10.15;;;6.55;;
9142;SDS011;54072;47.410;8.446;2023-06-22T11:50:02;11.32;;;6.50;;
9142;SDS011;54072;47.410;8.446;2023-06-22T11:52:32;9.55;;;6.93;;
9142;SDS011;54072;47.410;8.446;2023-06-22T11:55:02;11.35;;;7.03;;
9142;SDS011;54072;47.410;8.446;2023-06-22T11:57:32;11.73;;;7.20;;
9142;SDS011;54072;47.410;8.446;2023-06-22T12:00:00;12.73;;;7.15;;
9142;SDS011;54072;47.410;8.446;2023-06-22T12:02:27;12.48;;;7.40;;
9142;SDS011;54072;47.410;8.446;2023-06-22T12:04:55;10.30;;;7.25;;
9142;SDS011;54072;47.410;8.446;2023-06-22T12:07:24;16.55;;;7.35;;
9142;SDS011;54072;47.410;8.446;2023-06-22T12:09:53;11.05;;;7.15;;
9142;SDS011;54072;47.410;8.446;2023-06-22T12:12:20;9.70;;;7.22;;
9142;SDS011;54072;47.410;8.446;2023-06-22T12:14:48;12.75;;;6.78;;
9142;SDS011;54072;47.410;8.446;2023-06-22T12:17:15;10.55;;;6.75;;
9142;SDS011;54072;47.410;8.446;2023-06-22T12:19:43;8.23;;;6.70;;
9142;SDS011;54072;47.410;8.446;2023-06-22T12:22:10;13.15;;;7.00;;
9142;SDS011;54072;47.410;8.446;2023-06-22T12:24:38;13.45;;;6.40;;
9142;SDS011;54072;47.410;8.446;2023-06-22T12:27:07;14.60;;;7.22;;
9142;SDS011;54072;47.410;8.446;2023-06-22T12:29:34;17.13;;;7.05;;
9142;SDS011;54072;47.410;8.446;2023-06-22T12:32:02;11.32;;;6.70;;
9142;SDS011;54072;47.410;8.446;2023-06-22T12:34:30;12.20;;;6.70;;
9142;SDS011;54072;47.410;8.446;2023-06-22T12:36:57;18.48;;;8.40;;
9142;SDS011;54072;47.410;8.446;2023-06-22T12:39:25;21.05;;;7.53;;
9142;SDS011;54072;47.410;8.446;2023-06-22T12:41:52;63.08;;;12.27;;
9142;SDS011;54072;47.410;8.446;2023-06-22T12:44:21;12.05;;;7.05;;
9142;SDS011;54072;47.410;8.446;2023-06-22T12:46:49;12.45;;;7.57;;
9142;SDS011;54072;47.410;8.446;2023-06-22T12:49:16;9.98;;;7.38;;
9142;SDS011;54072;47.410;8.446;2023-06-22T12:51:44;10.20;;;7.38;;
9142;SDS011;54072;47.410;8.446;2023-06-22T12:54:12;10.40;;;7.10;;
9142;SDS011;54072;47.410;8.446;2023-06-22T12:56:39;8.93;;;6.80;;
9142;SDS011;54072;47.410;8.446;2023-06-22T12:59:10;12.35;;;7.57;;
9142;SDS011;54072;47.410;8.446;2023-06-22T13:01:38;10.95;;;7.78;;
9142;SDS011;54072;47.410;8.446;2023-06-22T13:04:06;11.38;;;7.28;;
9142;SDS011;54072;47.410;8.446;2023-06-22T13:06:34;8.63;;;6.43;;
9142;SDS011;54072;47.410;8.446;2023-06-22T13:09:01;8.98;;;6.55;;
9142;SDS011;54072;47.410;8.446;2023-06-22T13:11:34;11.43;;;6.40;;
9142;SDS011;54072;47.410;8.446;2023-06-22T13:14:01;8.90;;;7.00;;
9142;SDS011;54072;47.410;8.446;2023-06-22T13:16:30;14.85;;;6.78;;
9142;SDS011;54072;47.410;8.446;2023-06-22T13:18:59;10.68;;;6.50;;
9142;SDS011;54072;47.410;8.446;2023-06-22T13:21:26;7.95;;;5.30;;
9142;SDS011;54072;47.410;8.446;2023-06-22T13:23:54;9.82;;;4.78;;
9142;SDS011;54072;47.410;8.446;2023-06-22T13:26:22;11.20;;;4.90;;
9142;SDS011;54072;47.410;8.446;2023-06-22T13:28:49;9.55;;;5.07;;
9142;SDS011;54072;47.410;8.446;2023-06-22T13:31:17;9.45;;;4.78;;
9142;SDS011;54072;47.410;8.446;2023-06-22T13:33:44;9.30;;;5.18;;
9142;SDS011;54072;47.410;8.446;2023-06-22T13:36:15;6.88;;;4.90;;
9142;SDS011;54072;47.410;8.446;2023-06-22T13:38:43;8.50;;;4.50;;
9142;SDS011;54072;47.410;8.446;2023-06-22T13:41:11;9.77;;;4.40;;
9142;SDS011;54072;47.410;8.446;2023-06-22T13:43:38;10.35;;;4.45;;
9142;SDS011;54072;47.410;8.446;2023-06-22T13:46:06;7.25;;;4.38;;
9142;SDS011;54072;47.410;8.446;2023-06-22T13:48:33;8.05;;;4.50;;
9142;SDS011;54072;47.410;8.446;2023-06-22T13:51:01;12.80;;;4.45;;
9142;SDS011;54072;47.410;8.446;2023-06-22T13:53:30;6.05;;;3.95;;
9142;SDS011;54072;47.410;8.446;2023-06-22T13:55:57;9.98;;;4.65;;
9142;SDS011;54072;47.410;8.446;2023-06-22T13:58:25;10.20;;;5.05;;
9142;SDS011;54072;47.410;8.446;2023-06-22T14:00:52;10.70;;;4.57;;
9142;SDS011;54072;47.410;8.446;2023-06-22T14:03:21;6.93;;;4.30;;
9142;SDS011;54072;47.410;8.446;2023-06-22T14:05:50;8.80;;;4.45;;
9142;SDS011;54072;47.410;8.446;2023-06-22T14:08:20;5.60;;;4.30;;
9142;SDS011;54072;47.410;8.446;2023-06-22T14:10:58;14.52;;;5.05;;
9142;SDS011;54072;47.410;8.446;2023-06-22T14:13:26;11.02;;;4.93;;
9142;SDS011;54072;47.410;8.446;2023-06-22T14:15:54;10.23;;;5.00;;
9142;SDS011;54072;47.410;8.446;2023-06-22T14:18:21;12.98;;;4.85;;
9142;SDS011;54072;47.410;8.446;2023-06-22T14:20:49;11.90;;;5.50;;
9142;SDS011;54072;47.410;8.446;2023-06-22T14:23:17;10.40;;;4.93;;
9142;SDS011;54072;47.410;8.446;2023-06-22T14:25:44;9.82;;;5.32;;
9142;SDS011;54072;47.410;8.446;2023-06-22T14:28:13;7.80;;;4.80;;
9142;SDS011;54072;47.410;8.446;2023-06-22T14:30:42;10.73;;;5.32;;
9142;SDS011;54072;47.410;8.446;2023-06-22T14:33:10;10.20;;;5.45;;
9142;SDS011;54072;47.410;8.446;2023-06-22T14:35:38;15.05;;;5.88;;
9142;SDS011;54072;47.410;8.446;2023-06-22T14:38:06;9.88;;;5.82;;
9142;SDS011;54072;47.410;8.446;2023-06-22T14:40:33;9.48;;;6.03;;
9142;SDS011;54072;47.410;8.446;2023-06-22T14:43:01;7.60;;;5.80;;
9142;SDS011;54072;47.410;8.446;2023-06-22T14:45:30;18.30;;;7.03;;
9142;SDS011;54072;47.410;8.446;2023-06-22T14:47:58;17.65;;;6.95;;
9142;SDS011;54072;47.410;8.446;2023-06-22T14:50:25;9.27;;;5.80;;
9142;SDS011;54072;47.410;8.446;2023-06-22T14:52:53;11.60;;;6.05;;
9142;SDS011;54072;47.410;8.446;2023-06-22T14:55:21;8.23;;;5.50;;
9142;SDS011;54072;47.410;8.446;2023-06-22T14:57:49;9.25;;;5.93;;